»·PEaware :: ASA1899 KLAX-KSFO

ASA1899 :: KLAX-KSFO

FLIGHT INFORMATION

Flight Status: Arrived
Operator:
Alaska Airlines
More flights by this operator :: More flights under this callsign
Pilot: Nicholas B. (11473)
Aircraft: AIRBUS A320
(A320)
More flights by this aircraft type
Origin: KLAX Los Angeles Intl
United States
Destination: KSFO San Francisco Intl
United States
More flights between these airports :: More routes between these airports
Route: +SUMMR1 STOKD SERFR SERFR3
File this flight plan on PilotEdge
Remarks: PBN / A1B1C1D1O1S1 NAV / RNVD1E2A1 DAT / V DOF / 181002 REG / N320SB EET / KZOA0024 RMK / NRP SIMBRIEF
Altitude:
(Current/Filed)
36,000ft
Speed:
(Current/Filed)
434kts
Departed: 02-Oct-18 10:57 AM
Arrived: 02-Oct-18 11:48 AM
Distance/Time
Traveled:
293nm/0:50
Distance/Time
To Go:
Arrived

Flight Plot

Page will automatically refresh every two minutes.

Flight plan parsing failed; only flown route is shown


Map Options




Map Legend


Flown Route
Filed Route
Departure Airport
Arrival Airport
Navaid (VOR, NDB)
Fix

Horizontal Profiles

Position Reports

Time Latitude Longitude Heading Altitude Ground
Speed
02-Oct-18 10:31 33.940862 -118.402561 95 126ft 0kts
02-Oct-18 10:32 33.940862 -118.402561 95 126ft 0kts
02-Oct-18 10:33 33.940862 -118.402561 95 126ft 0kts
02-Oct-18 10:34 33.940862 -118.402561 95 126ft 0kts
02-Oct-18 10:35 33.940862 -118.402561 95 126ft 0kts
02-Oct-18 10:36 33.940862 -118.402561 95 126ft 0kts
02-Oct-18 10:37 33.940862 -118.402561 95 126ft 0kts
02-Oct-18 10:38 33.940862 -118.402561 95 126ft 0kts
02-Oct-18 10:39 33.940862 -118.402561 95 126ft 0kts
02-Oct-18 10:40 33.940862 -118.402561 95 126ft 0kts
02-Oct-18 10:41 33.940862 -118.402561 95 126ft 0kts
02-Oct-18 10:42 33.940862 -118.402561 95 126ft 0kts
02-Oct-18 10:43 33.940862 -118.402561 95 126ft 0kts
02-Oct-18 10:44 33.940862 -118.402561 95 126ft 0kts
02-Oct-18 10:45 33.940862 -118.402561 95 126ft 0kts
02-Oct-18 10:46 33.940862 -118.402561 95 126ft 0kts
02-Oct-18 10:47 33.940862 -118.402561 95 126ft 0kts
02-Oct-18 10:48 33.940869 -118.402636 95 126ft 2kts
02-Oct-18 10:49 33.941043 -118.403207 173 127ft 1kts
02-Oct-18 10:50 33.940245 -118.403074 173 127ft 0kts
02-Oct-18 10:51 33.940245 -118.403074 173 127ft 0kts
02-Oct-18 10:52 33.940245 -118.403074 173 127ft 0kts
02-Oct-18 10:53 33.940242 -118.403074 173 127ft 0kts
02-Oct-18 10:54 33.938602 -118.401738 83 125ft 15kts
02-Oct-18 10:55 33.939335 -118.394375 83 113ft 28kts
02-Oct-18 10:56 33.940112 -118.386931 83 107ft 22kts
02-Oct-18 10:57 33.940768 -118.380463 88 104ft 6kts
02-Oct-18 10:58 33.939787 -118.380713 263 104ft 18kts
02-Oct-18 10:59 33.935644 -118.423506 262 1840ft 174kts
02-Oct-18 11:00 33.929306 -118.491378 264 3718ft 251kts
02-Oct-18 11:01 33.922105 -118.578049 264 5328ft 268kts
02-Oct-18 11:02 33.917765 -118.666387 267 8608ft 281kts
02-Oct-18 11:03 33.917343 -118.764575 267 11343ft 324kts
02-Oct-18 11:04 33.918268 -118.873503 268 12019ft 328kts
02-Oct-18 11:05 33.921484 -118.984114 267 13779ft 340kts
02-Oct-18 11:06 33.961111 -119.091652 295 16564ft 372kts
02-Oct-18 11:07 34.020663 -119.195368 316 19072ft 400kts
02-Oct-18 11:08 34.109243 -119.271624 318 21176ft 416kts
02-Oct-18 11:09 34.202911 -119.352306 317 23094ft 428kts
02-Oct-18 11:10 34.298962 -119.435291 316 24848ft 439kts
02-Oct-18 11:11 34.398965 -119.522065 314 26494ft 448kts
02-Oct-18 11:12 34.486765 -119.625449 305 28006ft 446kts
02-Oct-18 11:13 34.572459 -119.731016 304 29420ft 453kts
02-Oct-18 11:14 34.660870 -119.840296 304 30682ft 461kts
02-Oct-18 11:15 34.744884 -119.944415 303 32063ft 460kts
02-Oct-18 11:16 34.832072 -120.052869 303 33612ft 454kts
02-Oct-18 11:17 34.919302 -120.161734 302 34925ft 452kts
02-Oct-18 11:18 35.007068 -120.271613 303 35919ft 454kts
02-Oct-18 11:19 35.095075 -120.381116 306 35949ft 458kts
02-Oct-18 11:20 35.186546 -120.483479 306 35944ft 459kts
02-Oct-18 11:21 35.280328 -120.588836 306 35944ft 459kts
02-Oct-18 11:22 35.373041 -120.693291 306 35953ft 460kts
02-Oct-18 11:23 35.466101 -120.798490 306 35960ft 460kts
02-Oct-18 11:24 35.567395 -120.895910 312 35954ft 469kts
02-Oct-18 11:25 35.671021 -120.992281 312 35943ft 468kts
02-Oct-18 11:26 35.773944 -121.088282 313 35671ft 468kts
02-Oct-18 11:27 35.876530 -121.184255 313 33898ft 459kts
02-Oct-18 11:28 35.976659 -121.278265 314 31978ft 450kts
02-Oct-18 11:29 36.075710 -121.370219 319 30035ft 446kts
02-Oct-18 11:30 36.177944 -121.450053 321 28118ft 469kts
02-Oct-18 11:31 36.286629 -121.534995 322 26054ft 457kts
02-Oct-18 11:32 36.392000 -121.617747 322 24016ft 442kts
02-Oct-18 11:33 36.493729 -121.698041 323 22018ft 429kts
02-Oct-18 11:34 36.592522 -121.776047 323 20036ft 415kts
02-Oct-18 11:35 36.687986 -121.851703 324 18108ft 402kts
02-Oct-18 11:36 36.787599 -121.907172 346 16198ft 394kts
02-Oct-18 11:37 36.892341 -121.936284 346 14384ft 380kts
02-Oct-18 11:38 36.991111 -121.968395 341 12640ft 355kts
02-Oct-18 11:39 37.083618 -122.004456 343 10969ft 344kts
02-Oct-18 11:40 37.166664 -122.036906 340 9582ft 299kts
02-Oct-18 11:41 37.241615 -122.066292 340 8324ft 285kts
02-Oct-18 11:42 37.314930 -122.095084 340 7193ft 276kts
02-Oct-18 11:43 37.385150 -122.122595 342 5687ft 260kts
02-Oct-18 11:44 37.455229 -122.146412 346 4251ft 261kts
02-Oct-18 11:45 37.518246 -122.168009 343 3500ft 216kts
02-Oct-18 11:46 37.551869 -122.215640 296 2860ft 161kts
02-Oct-18 11:47 37.570320 -122.259613 296 1745ft 135kts
02-Oct-18 11:48 37.588159 -122.302241 296 1020ft 138kts
02-Oct-18 11:49 37.606069 -122.344979 296 291ft 137kts
02-Oct-18 11:50 37.618966 -122.375895 280 24ft 20kts
02-Oct-18 11:51 37.618948 -122.378144 267 29ft 0kts
02-Oct-18 11:52 37.618554 -122.379418 211 31ft 8kts
02-Oct-18 11:53 37.617529 -122.379710 255 32ft 2kts
02-Oct-18 11:54 37.617488 -122.380381 271 32ft 0kts
02-Oct-18 11:55 37.617488 -122.380381 271 32ft 0kts
02-Oct-18 11:56 37.617488 -122.380381 271 32ft 0kts
02-Oct-18 11:57 37.617488 -122.380381 271 32ft 0kts

Navigation Log

Ident Type
Flight plan parsing failed, navigation log unavailable